createdAt,value
2023-10-09T00:00:38.638Z,99362.84
2023-10-09T00:01:46.035Z,99359.20
2023-10-09T00:02:48.939Z,99348.95
2023-10-09T00:03:53.227Z,99357.43
2023-10-09T00:04:57.494Z,99364.35
2023-10-09T00:06:01.058Z,99371.38
2023-10-09T00:07:08.438Z,99378.30
2023-10-09T00:08:14.165Z,99361.84
2023-10-09T00:09:27.379Z,99370.34
2023-10-09T00:10:32.416Z,99379.02
2023-10-09T00:11:38.548Z,99372.02
2023-10-09T00:12:42.732Z,99377.24
2023-10-09T00:13:54.021Z,99388.37
2023-10-09T00:14:56.778Z,99347.30
2023-10-09T00:16:12.076Z,99373.96
2023-10-09T00:17:20.774Z,99385.05
2023-10-09T00:18:27.199Z,99372.44
2023-10-09T00:19:32.646Z,99384.45
2023-10-09T00:20:43.488Z,99388.69
2023-10-09T00:21:50.808Z,99390.48
2023-10-09T00:22:53.019Z,99367.16
2023-10-09T00:23:59.699Z,99389.30
2023-10-09T00:25:11.260Z,99376.61
2023-10-09T00:26:16.887Z,99405.85
2023-10-09T00:27:30.237Z,99408.53
2023-10-09T00:28:34.516Z,99384.70
2023-10-09T00:29:39.058Z,99395.64
2023-10-09T00:30:42.309Z,99386.28
2023-10-09T00:33:10.437Z,99393.02
2023-10-09T00:34:14.731Z,99380.35
2023-10-09T00:35:35.537Z,99392.89
2023-10-09T00:36:41.098Z,99397.34
2023-10-09T00:37:45.382Z,99391.49
2023-10-09T00:38:49.738Z,99411.28
2023-10-09T00:39:59.284Z,99413.71
2023-10-09T00:41:06.617Z,99411.11
2023-10-09T00:42:11.536Z,99418.13
2023-10-09T00:43:15.762Z,99399.94
2023-10-09T00:44:19.174Z,99393.31
2023-10-09T00:45:24.051Z,99395.08
2023-10-09T00:46:28.275Z,99401.91
2023-10-09T00:47:35.287Z,99401.21
2023-10-09T00:48:40.643Z,99394.30
2023-10-09T00:49:44.433Z,99403.57
2023-10-09T00:50:48.993Z,99406.20
2023-10-09T00:51:54.626Z,99431.26
2023-10-09T00:53:04.439Z,99411.57
2023-10-09T00:54:09.191Z,99413.28
2023-10-09T00:55:24.608Z,99402.91
2023-10-09T00:56:31.386Z,99420.78
2023-10-09T00:57:38.335Z,99430.11
2023-10-09T00:58:42.694Z,99422.59
2023-10-09T00:59:47.772Z,99424.23
2023-10-09T01:00:52.868Z,99416.67
2023-10-09T01:02:03.211Z,99400.33
2023-10-09T01:04:29.998Z,99425.12
2023-10-09T01:05:32.678Z,99429.89
2023-10-09T01:06:37.348Z,99455.22
2023-10-09T01:07:41.705Z,99436.31
2023-10-09T01:08:45.779Z,99436.46
2023-10-09T01:09:51.075Z,99425.45
2023-10-09T01:10:55.348Z,99445.14
2023-10-09T01:12:02.531Z,99446.91
2023-10-09T01:13:05.378Z,99450.30
2023-10-09T01:14:09.613Z,99437.46
2023-10-09T01:15:16.588Z,99419.38
2023-10-09T01:16:22.963Z,99414.05
2023-10-09T01:17:33.472Z,99430.45
2023-10-09T01:18:37.882Z,99435.70
2023-10-09T01:19:40.881Z,99425.29
2023-10-09T01:20:45.154Z,99433.84
2023-10-09T01:21:48.723Z,99447.53
2023-10-09T01:22:51.227Z,99452.69
2023-10-09T01:24:10.275Z,99449.19
2023-10-09T01:25:12.610Z,99445.09
2023-10-09T01:26:14.932Z,99497.39
2023-10-09T01:27:17.477Z,99442.61
2023-10-09T01:28:20.140Z,99447.00
2023-10-09T01:29:25.855Z,99446.67
2023-10-09T01:30:28.638Z,99489.77
2023-10-09T01:31:32.935Z,99433.91
2023-10-09T01:32:35.431Z,99446.63
2023-10-09T01:33:38.237Z,99437.30
2023-10-09T01:34:44.895Z,99470.08
2023-10-09T01:35:49.340Z,99470.08
2023-10-09T01:36:56.385Z,99450.25
2023-10-09T01:37:58.758Z,99463.13
2023-10-09T01:39:07.232Z,99482.09
2023-10-09T01:40:28.385Z,99447.44
2023-10-09T01:41:32.799Z,99464.66
2023-10-09T01:42:35.082Z,99460.37
2023-10-09T01:43:39.452Z,99480.27
2023-10-09T01:44:47.044Z,99464.16
2023-10-09T01:45:51.245Z,99465.92
2023-10-09T01:46:55.977Z,99464.99
2023-10-09T01:47:58.754Z,99464.99
2023-10-09T01:49:04.157Z,99469.92
2023-10-09T01:50:14.970Z,99454.52
2023-10-09T01:51:17.862Z,99510.45
2023-10-09T01:52:21.239Z,99474.42
2023-10-09T01:53:25.445Z,99471.89
2023-10-09T01:54:40.734Z,99482.26
2023-10-09T01:55:44.607Z,99491.47
2023-10-09T01:56:47.425Z,99511.98
2023-10-09T01:57:49.869Z,99501.00
2023-10-09T01:58:54.019Z,99470.14
2023-10-09T01:59:58.576Z,99452.20
2023-10-09T02:01:03.148Z,99492.45
2023-10-09T02:02:17.077Z,99487.40
2023-10-09T02:03:19.602Z,99526.06
2023-10-09T02:04:22.571Z,99482.98
2023-10-09T02:05:26.884Z,99485.61
2023-10-09T02:06:31.694Z,99483.84
2023-10-09T02:07:52.660Z,99488.02
2023-10-09T02:08:56.743Z,99478.59
2023-10-09T02:09:59.073Z,99493.22
2023-10-09T02:11:03.669Z,99497.70
2023-10-09T02:12:06.948Z,99479.66
2023-10-09T02:13:12.063Z,99487.35
2023-10-09T02:14:20.068Z,99519.11
2023-10-09T02:15:41.339Z,99488.28
2023-10-09T02:16:43.974Z,99482.30
2023-10-09T02:17:57.223Z,99489.92
2023-10-09T02:18:59.624Z,99494.16
2023-10-09T02:20:03.780Z,99496.80
2023-10-09T02:21:09.569Z,99482.91
2023-10-09T02:22:15.658Z,99494.77
2023-10-09T02:23:19.830Z,99497.30
2023-10-09T02:24:29.645Z,99510.39
2023-10-09T02:25:37.120Z,99501.06
2023-10-09T02:26:41.671Z,99507.09
2023-10-09T02:27:48.800Z,99510.45
2023-10-09T02:28:59.568Z,99510.45
2023-10-09T02:30:06.270Z,99543.22
2023-10-09T02:31:14.195Z,99528.84
2023-10-09T02:32:18.533Z,99540.03
2023-10-09T02:33:25.700Z,99538.48
2023-10-09T02:34:30.080Z,99523.98
2023-10-09T02:35:34.460Z,99525.59
2023-10-09T02:36:50.268Z,99518.75
2023-10-09T02:37:53.871Z,99513.44
2023-10-09T02:38:57.338Z,99514.32
2023-10-09T02:40:01.948Z,99511.53
2023-10-09T02:41:06.370Z,99515.91
2023-10-09T02:42:16.677Z,99524.46
2023-10-09T02:43:20.528Z,99523.69
2023-10-09T02:44:26.353Z,99575.37
2023-10-09T02:45:30.966Z,99516.95
2023-10-09T02:46:35.123Z,99516.06
2023-10-09T02:47:41.165Z,99545.28
2023-10-09T02:48:47.934Z,99516.90
2023-10-09T02:49:50.966Z,99513.53
2023-10-09T02:50:55.174Z,99547.75
2023-10-09T02:51:57.577Z,99521.06
2023-10-09T02:53:01.498Z,99521.06
2023-10-09T02:54:21.615Z,99534.66
2023-10-09T02:55:25.766Z,99569.77
2023-10-09T02:56:30.116Z,99528.73
2023-10-09T02:57:40.514Z,99526.99
2023-10-09T02:58:44.671Z,99525.30
2023-10-09T02:59:48.253Z,99533.78
2023-10-09T03:00:52.255Z,99518.23
2023-10-09T03:01:55.056Z,99536.27
2023-10-09T03:02:59.181Z,99520.08
2023-10-09T03:04:04.849Z,99520.08
2023-10-09T03:05:09.889Z,99532.09
2023-10-09T03:06:14.510Z,99526.94
2023-10-09T03:07:17.182Z,99519.05
2023-10-09T03:08:19.944Z,99548.94
2023-10-09T03:09:27.327Z,99562.86
2023-10-09T03:10:29.945Z,99542.30
2023-10-09T03:11:32.933Z,99592.08
2023-10-09T03:12:35.593Z,99563.01
2023-10-09T03:13:38.488Z,99526.94
2023-10-09T03:14:43.165Z,99535.54
2023-10-09T03:15:46.207Z,99530.39
2023-10-09T03:16:51.306Z,99531.99
2023-10-09T03:17:54.559Z,99531.22
2023-10-09T03:18:57.752Z,99531.99
2023-10-09T03:20:00.239Z,99533.64
2023-10-09T03:21:04.801Z,99532.86
2023-10-09T03:22:12.939Z,99539.15
2023-10-09T03:23:15.681Z,99533.02
2023-10-09T03:24:19.764Z,99540.75
2023-10-09T03:25:24.095Z,99533.02
2023-10-09T03:26:26.511Z,99552.85
2023-10-09T03:27:28.984Z,99538.38
2023-10-09T03:28:32.344Z,99546.06
2023-10-09T03:29:34.656Z,99534.92
2023-10-09T03:30:38.958Z,99534.10
2023-10-09T03:31:43.260Z,99560.84
2023-10-09T03:32:48.817Z,99553.94
2023-10-09T03:33:52.126Z,99532.45
2023-10-09T03:34:55.824Z,99536.92
2023-10-09T03:35:58.470Z,99542.81
2023-10-09T03:37:08.796Z,99535.99
2023-10-09T03:38:15.920Z,99539.45
2023-10-09T03:39:37.273Z,99537.75
2023-10-09T03:40:43.588Z,99551.65
2023-10-09T03:41:48.168Z,99555.05
2023-10-09T03:42:50.683Z,99559.44
2023-10-09T03:43:57.262Z,99572.40
2023-10-09T03:45:00.677Z,99556.08
2023-10-09T03:46:05.094Z,99607.50
2023-10-09T03:47:09.579Z,99554.38
2023-10-09T03:48:27.455Z,99557.09
2023-10-09T03:49:30.393Z,99557.09
2023-10-09T03:50:38.838Z,99557.05
2023-10-09T03:51:43.021Z,99578.33
2023-10-09T03:52:45.863Z,99569.86
2023-10-09T03:53:50.391Z,99567.34
2023-10-09T03:54:53.791Z,99566.23
2023-10-09T03:55:56.414Z,99566.23
2023-10-09T03:56:59.393Z,99578.38
2023-10-09T03:59:53.481Z,99578.48
2023-10-09T04:00:56.614Z,99602.44
2023-10-09T04:01:59.061Z,99601.80
2023-10-09T04:03:06.332Z,99639.62
2023-10-09T04:04:11.186Z,99575.25
2023-10-09T04:05:14.108Z,99593.92
2023-10-09T04:06:18.257Z,99597.37
2023-10-09T04:07:21.917Z,99616.33
2023-10-09T04:08:26.435Z,99590.52
2023-10-09T04:09:29.756Z,99609.33
2023-10-09T04:10:46.414Z,99607.63
2023-10-09T04:11:52.084Z,99603.36
2023-10-09T04:12:56.184Z,99618.89
2023-10-09T04:14:00.629Z,99623.27
2023-10-09T04:15:05.366Z,99638.76
2023-10-09T04:16:13.914Z,99617.24
2023-10-09T04:17:27.513Z,99623.17
2023-10-09T04:18:31.939Z,99624.96
2023-10-09T04:19:41.682Z,99625.74
2023-10-09T04:20:58.085Z,99615.36
2023-10-09T04:22:02.189Z,99635.83
2023-10-09T04:23:07.582Z,99617.84
2023-10-09T04:24:11.939Z,99625.61
2023-10-09T04:25:19.212Z,99653.71
2023-10-09T04:26:22.665Z,99653.71
2023-10-09T04:27:26.772Z,99675.16
2023-10-09T04:28:30.355Z,99633.89
2023-10-09T04:29:39.361Z,99640.56
2023-10-09T04:30:47.318Z,99616.16
2023-10-09T04:31:55.015Z,99618.83
2023-10-09T04:32:59.874Z,99630.15
2023-10-09T04:34:22.823Z,99649.02
2023-10-09T04:35:27.111Z,99655.28
2023-10-09T04:36:31.437Z,99628.10
2023-10-09T04:37:40.344Z,99628.10
2023-10-09T04:39:02.380Z,99658.08
2023-10-09T04:40:14.060Z,99625.61
2023-10-09T04:41:18.321Z,99641.98
2023-10-09T04:42:22.583Z,99627.41
2023-10-09T04:43:26.780Z,99654.73
2023-10-09T04:44:34.457Z,99656.98
2023-10-09T04:45:55.800Z,99676.77
2023-10-09T04:47:15.342Z,99653.11
2023-10-09T04:48:20.232Z,99651.19
2023-10-09T04:49:28.829Z,99672.75
2023-10-09T04:50:33.105Z,99638.72
2023-10-09T04:51:37.736Z,99654.95
2023-10-09T04:52:43.285Z,99650.85
2023-10-09T04:53:47.819Z,99653.30
2023-10-09T04:54:58.159Z,99658.31
2023-10-09T04:57:15.582Z,99662.33
2023-10-09T04:58:19.786Z,99664.10
2023-10-09T04:59:23.991Z,99660.89
2023-10-09T05:00:29.540Z,99668.95
2023-10-09T05:01:34.250Z,99680.44
2023-10-09T05:02:40.353Z,99696.20
2023-10-09T05:03:44.860Z,99662.81
2023-10-09T05:04:49.650Z,99666.13
2023-10-09T05:05:54.253Z,99671.62
2023-10-09T05:06:56.642Z,99679.57
2023-10-09T05:08:00.531Z,99679.57
2023-10-09T05:09:04.700Z,99682.40
2023-10-09T05:11:54.320Z,99674.14
2023-10-09T05:13:00.767Z,99694.84
2023-10-09T05:14:15.380Z,99690.34
2023-10-09T05:15:18.704Z,99682.57
2023-10-09T05:16:27.422Z,99695.36
2023-10-09T05:17:30.073Z,99704.09
2023-10-09T05:18:37.348Z,99707.63
2023-10-09T05:19:42.494Z,99726.50
2023-10-09T05:20:58.977Z,99694.02
2023-10-09T05:22:03.088Z,99734.45
2023-10-09T05:23:22.604Z,99723.40
2023-10-09T05:25:56.737Z,99725.55
2023-10-09T05:27:17.800Z,99713.80
2023-10-09T05:28:28.089Z,99730.64
2023-10-09T05:29:35.225Z,99717.30
2023-10-09T05:30:39.516Z,99704.66
2023-10-09T05:31:59.081Z,99728.78
2023-10-09T05:33:20.094Z,99698.44
2023-10-09T05:34:23.410Z,99712.98
2023-10-09T05:35:43.603Z,99704.20
2023-10-09T05:36:47.874Z,99710.55
2023-10-09T05:37:51.885Z,99719.12
2023-10-09T05:39:02.131Z,99716.44
2023-10-09T05:40:20.276Z,99720.14
2023-10-09T05:41:33.696Z,99740.33
2023-10-09T05:42:45.039Z,99738.42
2023-10-09T05:44:06.325Z,99733.32
2023-10-09T05:45:35.494Z,99720.42
2023-10-09T05:46:37.807Z,99730.55
2023-10-09T05:47:43.114Z,99738.62
2023-10-09T05:48:52.534Z,99737.13
2023-10-09T05:50:11.904Z,99733.42
2023-10-09T05:51:16.141Z,99732.54
2023-10-09T05:52:37.595Z,99737.70
2023-10-09T05:53:47.431Z,99741.11
2023-10-09T05:54:57.705Z,99742.89
2023-10-09T05:56:18.102Z,99757.25
2023-10-09T05:57:22.504Z,99756.94
2023-10-09T05:58:39.543Z,99742.30
2023-10-09T06:00:00.825Z,99764.90
2023-10-09T06:01:22.919Z,99744.70
2023-10-09T06:02:52.154Z,99740.33
2023-10-09T06:03:54.961Z,99726.36
2023-10-09T06:04:58.188Z,99735.86
2023-10-09T06:06:03.914Z,99746.39
2023-10-09T06:07:18.020Z,99738.19
2023-10-09T06:08:22.916Z,99767.28
2023-10-09T06:09:43.400Z,99727.48
2023-10-09T06:10:48.026Z,99740.22
2023-10-09T06:11:52.723Z,99749.23
2023-10-09T06:12:58.591Z,99752.05
2023-10-09T06:14:05.457Z,99743.84
2023-10-09T06:15:10.862Z,99744.60
2023-10-09T06:16:32.322Z,99763.14
2023-10-09T06:17:38.117Z,99753.12
2023-10-09T06:18:44.344Z,99765.88
2023-10-09T06:19:48.494Z,99786.47
2023-10-09T06:20:53.546Z,99766.46
2023-10-09T06:22:18.610Z,99761.84
2023-10-09T06:23:22.956Z,99761.54
2023-10-09T06:24:27.738Z,99764.61
2023-10-09T06:25:31.884Z,99762.26
2023-10-09T06:26:34.624Z,99772.59
2023-10-09T06:27:38.858Z,99831.00
2023-10-09T06:28:43.116Z,99769.23
2023-10-09T06:29:47.239Z,99769.23
2023-10-09T06:30:50.982Z,99765.52
2023-10-09T06:32:00.721Z,99789.56
2023-10-09T06:33:05.807Z,99785.27
2023-10-09T06:34:10.064Z,99782.77
2023-10-09T06:35:20.851Z,99781.00
2023-10-09T06:36:25.387Z,99785.08
2023-10-09T06:37:32.732Z,99793.91
2023-10-09T06:38:36.944Z,99793.91
2023-10-09T06:39:52.174Z,99796.28
2023-10-09T06:41:08.785Z,99794.94
2023-10-09T06:42:13.326Z,99773.85
2023-10-09T06:43:17.735Z,99767.38
2023-10-09T06:44:21.829Z,99789.05
2023-10-09T06:45:26.630Z,99771.86
2023-10-09T06:46:39.964Z,99776.86
2023-10-09T06:48:09.931Z,99793.80
2023-10-09T06:49:32.334Z,99778.56
2023-10-09T06:50:57.301Z,99775.42
2023-10-09T06:52:02.069Z,99767.29
2023-10-09T06:53:09.647Z,99786.97
2023-10-09T06:54:15.869Z,99772.95
2023-10-09T06:55:21.326Z,99767.55
2023-10-09T06:56:34.241Z,99817.86
2023-10-09T06:57:48.647Z,99794.27
2023-10-09T06:58:53.668Z,99782.34
2023-10-09T07:00:18.982Z,99789.56
2023-10-09T07:01:30.154Z,99793.28
2023-10-09T07:02:34.798Z,99810.78
2023-10-09T07:03:39.194Z,99788.38
2023-10-09T07:04:44.091Z,99777.39
2023-10-09T07:05:54.467Z,99777.27
2023-10-09T07:08:15.315Z,99780.59
2023-10-09T07:09:19.975Z,99783.07
2023-10-09T07:10:33.204Z,99783.07
2023-10-09T07:11:42.702Z,99786.81
2023-10-09T07:12:45.326Z,99787.03
2023-10-09T07:13:55.306Z,99781.64
2023-10-09T07:14:59.432Z,99779.66
2023-10-09T07:16:20.013Z,99776.02
2023-10-09T07:17:22.550Z,99780.27
2023-10-09T07:18:26.715Z,99761.53
2023-10-09T07:19:44.261Z,99810.69
2023-10-09T07:20:48.481Z,99791.37
2023-10-09T07:21:53.229Z,99800.11
2023-10-09T07:23:00.300Z,99796.35
2023-10-09T07:24:04.453Z,99797.98
2023-10-09T07:25:18.515Z,99777.22
2023-10-09T07:26:23.134Z,99797.81
2023-10-09T07:28:42.656Z,99804.06
2023-10-09T07:29:51.015Z,99807.41
2023-10-09T07:30:55.077Z,99794.59
2023-10-09T07:32:02.020Z,99807.71
2023-10-09T07:33:08.762Z,99803.92
2023-10-09T07:34:29.316Z,99792.55
2023-10-09T07:35:46.687Z,99794.17
2023-10-09T07:36:50.196Z,99792.38
2023-10-09T07:37:52.454Z,99807.57
2023-10-09T07:38:57.944Z,99815.75
2023-10-09T07:40:04.685Z,99784.08
2023-10-09T07:41:08.773Z,99793.80
2023-10-09T07:42:19.588Z,99829.14
2023-10-09T07:43:29.987Z,99822.02
2023-10-09T07:44:38.562Z,99804.91
2023-10-09T07:45:52.407Z,99801.42
2023-10-09T07:46:58.005Z,99815.75
2023-10-09T07:48:05.053Z,99811.80
2023-10-09T07:49:10.862Z,99805.05
2023-10-09T07:50:15.879Z,99808.10
2023-10-09T07:51:20.500Z,99821.25
2023-10-09T07:52:23.795Z,99805.61
2023-10-09T07:53:29.614Z,99808.63
2023-10-09T07:54:36.601Z,99812.16
2023-10-09T07:55:42.381Z,99803.56
2023-10-09T07:56:47.903Z,99836.83
2023-10-09T07:57:52.193Z,99816.31
2023-10-09T07:58:57.283Z,99801.91
2023-10-09T08:00:04.686Z,99814.95
2023-10-09T08:01:10.954Z,99827.80
2023-10-09T08:02:17.235Z,99792.34
2023-10-09T08:03:25.868Z,99802.55
2023-10-09T08:04:40.115Z,99821.11
2023-10-09T08:05:45.168Z,99834.94
2023-10-09T08:07:04.195Z,99819.55
2023-10-09T08:08:08.348Z,99806.88
2023-10-09T08:09:21.180Z,99803.45
2023-10-09T08:10:21.860Z,99826.63
2023-10-09T08:11:32.239Z,99804.40
2023-10-09T08:12:49.548Z,99808.77
2023-10-09T08:13:59.812Z,99824.16
2023-10-09T08:15:23.598Z,99828.77
2023-10-09T08:16:28.596Z,99829.22
2023-10-09T08:17:32.895Z,99818.97
2023-10-09T08:18:36.964Z,99827.58
2023-10-09T08:19:41.891Z,99839.41
2023-10-09T08:21:05.271Z,99819.68
2023-10-09T08:22:27.780Z,99813.36
2023-10-09T08:23:30.804Z,99793.04
2023-10-09T08:24:39.486Z,99800.42
2023-10-09T08:25:43.618Z,99787.87
2023-10-09T08:26:48.765Z,99844.94
2023-10-09T08:27:52.831Z,99847.06
2023-10-09T08:28:58.377Z,99808.55
2023-10-09T08:30:07.817Z,99806.98
2023-10-09T08:31:30.596Z,99810.08
2023-10-09T08:35:57.473Z,99808.67
2023-10-09T08:37:02.103Z,99828.44
2023-10-09T08:38:10.904Z,99806.05
2023-10-09T08:39:17.993Z,99817.33
2023-10-09T08:40:32.523Z,99797.02
2023-10-09T08:41:35.155Z,99791.39
2023-10-09T08:42:38.893Z,99783.48
2023-10-09T08:43:45.523Z,99811.29
2023-10-09T08:44:50.053Z,99798.02
2023-10-09T08:46:04.061Z,99828.66
2023-10-09T08:47:08.035Z,99801.19
2023-10-09T08:48:15.666Z,99826.17
2023-10-09T08:49:18.743Z,99807.59
2023-10-09T08:50:23.117Z,99811.88
2023-10-09T08:51:28.188Z,99805.47
2023-10-09T08:52:33.492Z,99805.75
2023-10-09T08:53:36.185Z,99810.87
2023-10-09T08:54:38.762Z,99817.89
2023-10-09T08:55:43.242Z,99799.08
2023-10-09T08:56:51.977Z,99816.05
2023-10-09T08:57:56.415Z,99841.13
2023-10-09T08:59:02.877Z,99830.20
2023-10-09T09:00:08.847Z,99839.36
2023-10-09T09:01:16.643Z,99819.94
2023-10-09T09:02:19.493Z,99827.60
2023-10-09T09:03:26.821Z,99820.05
2023-10-09T09:04:41.526Z,99820.05
2023-10-09T09:05:49.856Z,99820.25
2023-10-09T09:06:54.032Z,99837.64
2023-10-09T09:07:57.064Z,99845.15
2023-10-09T09:09:05.293Z,99853.73
2023-10-09T09:10:28.465Z,99869.81
2023-10-09T09:11:31.638Z,99853.86
2023-10-09T09:12:36.651Z,99826.94
2023-10-09T09:13:50.028Z,99846.84
2023-10-09T09:14:53.325Z,99842.30
2023-10-09T09:15:57.612Z,99839.97
2023-10-09T09:17:02.303Z,99843.36
2023-10-09T09:18:14.039Z,99825.52
2023-10-09T09:19:19.624Z,99837.17
2023-10-09T09:20:26.864Z,99855.20
2023-10-09T09:21:32.902Z,99827.00
2023-10-09T09:22:38.899Z,99815.85
2023-10-09T09:23:45.363Z,99825.13
2023-10-09T09:25:08.476Z,99825.53
2023-10-09T09:26:12.739Z,99826.37
2023-10-09T09:27:17.738Z,99811.55
2023-10-09T09:28:22.031Z,99843.59
2023-10-09T09:29:25.216Z,99830.61
2023-10-09T09:30:36.364Z,99824.51
2023-10-09T09:31:39.421Z,99849.28
2023-10-09T09:32:44.338Z,99840.42
2023-10-09T09:33:51.623Z,99864.55
2023-10-09T09:34:57.660Z,99837.36
2023-10-09T09:36:07.754Z,99840.17
2023-10-09T09:37:12.341Z,99844.15
2023-10-09T09:38:17.162Z,99799.70
2023-10-09T09:39:23.458Z,99818.75
2023-10-09T09:41:44.036Z,99811.22
2023-10-09T09:42:49.692Z,99814.55
2023-10-09T09:43:57.871Z,99812.18
2023-10-09T09:45:03.881Z,99826.75
2023-10-09T09:46:09.485Z,99821.53
2023-10-09T09:47:15.422Z,99823.97
2023-10-09T09:48:18.950Z,99826.20
2023-10-09T09:49:22.294Z,99811.66
2023-10-09T09:50:29.355Z,99835.97
2023-10-09T09:51:35.934Z,99839.97
2023-10-09T09:52:41.653Z,99822.81
2023-10-09T09:53:45.908Z,99815.48
2023-10-09T09:54:50.322Z,99814.56
2023-10-09T09:55:58.010Z,99827.41
2023-10-09T09:57:04.516Z,99822.44
2023-10-09T09:58:10.720Z,99812.30
2023-10-09T09:59:16.338Z,99827.55
2023-10-09T10:00:36.067Z,99845.97
2023-10-09T10:01:40.730Z,99834.31
2023-10-09T10:02:45.768Z,99823.91
2023-10-09T10:03:57.945Z,99818.10
2023-10-09T10:05:04.494Z,99823.94
2023-10-09T10:06:13.507Z,99837.37
2023-10-09T10:07:17.742Z,99836.16
2023-10-09T10:08:26.199Z,99821.50
2023-10-09T10:09:39.525Z,99845.34
2023-10-09T10:10:50.523Z,99828.47
2023-10-09T10:11:53.733Z,99858.38
2023-10-09T10:13:03.011Z,99845.75
2023-10-09T10:14:07.376Z,99845.75
2023-10-09T10:15:12.217Z,99901.94
2023-10-09T10:16:20.769Z,99845.61
2023-10-09T10:17:24.611Z,99881.67
2023-10-09T10:18:36.755Z,99831.37
2023-10-09T10:20:04.632Z,99833.02
2023-10-09T10:21:19.699Z,99871.53
2023-10-09T10:22:31.407Z,99822.09
2023-10-09T10:23:36.165Z,99820.66
2023-10-09T10:24:55.074Z,99833.63
2023-10-09T10:26:02.342Z,99811.59
2023-10-09T10:27:16.726Z,99824.98
2023-10-09T10:28:41.004Z,99824.41
2023-10-09T10:29:43.525Z,99819.80
2023-10-09T10:30:50.943Z,99841.50
2023-10-09T10:32:01.636Z,99801.91
2023-10-09T10:33:10.975Z,99802.12
2023-10-09T10:34:13.472Z,99803.05
2023-10-09T10:35:17.583Z,99803.95
2023-10-09T10:36:24.277Z,99822.05
2023-10-09T10:37:40.255Z,99810.39
2023-10-09T10:38:47.343Z,99802.59
2023-10-09T10:39:55.711Z,99793.08
2023-10-09T10:41:12.715Z,99809.92
2023-10-09T10:42:18.236Z,99809.11
2023-10-09T10:43:39.202Z,99829.29
2023-10-09T10:44:45.706Z,99822.50
2023-10-09T10:45:48.965Z,99797.39
2023-10-09T10:46:54.180Z,99789.33
2023-10-09T10:47:58.536Z,99822.64
2023-10-09T10:49:17.200Z,99805.75
2023-10-09T10:50:31.650Z,99808.66
2023-10-09T10:51:40.360Z,99836.42
2023-10-09T10:52:43.253Z,99840.40
2023-10-09T10:53:55.337Z,99801.61
2023-10-09T10:55:11.228Z,99816.45
2023-10-09T10:56:16.768Z,99811.42
2023-10-09T10:57:24.275Z,99797.19
2023-10-09T10:58:29.651Z,99823.98
2023-10-09T10:59:33.915Z,99796.64
2023-10-09T11:00:53.723Z,99817.08
2023-10-09T11:02:01.163Z,99815.30
2023-10-09T11:04:35.660Z,99783.53
2023-10-09T11:05:41.203Z,99794.39
2023-10-09T11:06:44.482Z,99783.84
2023-10-09T11:07:46.815Z,99779.84
2023-10-09T11:08:55.683Z,99786.41
2023-10-09T11:10:01.462Z,99791.06
2023-10-09T11:11:17.806Z,99791.50
2023-10-09T11:12:23.948Z,99786.55
2023-10-09T11:13:38.199Z,99794.06
2023-10-09T11:14:49.490Z,99792.78
2023-10-09T11:16:10.876Z,99799.06
2023-10-09T11:17:20.666Z,99809.61
2023-10-09T11:18:25.627Z,99802.84
2023-10-09T11:19:31.357Z,99778.58
2023-10-09T11:20:44.769Z,99779.55
2023-10-09T11:21:49.636Z,99780.03
2023-10-09T11:22:55.450Z,99797.65
2023-10-09T11:23:59.211Z,99775.80
2023-10-09T11:25:13.242Z,99766.98
2023-10-09T11:26:24.468Z,99768.78
2023-10-09T11:27:29.838Z,99790.77
2023-10-09T11:28:46.290Z,99779.41
2023-10-09T11:29:54.951Z,99778.82
2023-10-09T11:31:13.143Z,99774.58
2023-10-09T11:32:23.876Z,99800.03
2023-10-09T11:33:28.373Z,99786.91
2023-10-09T11:34:32.234Z,99804.84
2023-10-09T11:35:35.779Z,99774.35
2023-10-09T11:36:40.155Z,99771.58
2023-10-09T11:37:47.553Z,99796.40
2023-10-09T11:38:51.867Z,99784.97
2023-10-09T11:39:57.946Z,99815.70
2023-10-09T11:41:05.465Z,99778.63
2023-10-09T11:42:09.016Z,99782.19
2023-10-09T11:43:13.281Z,99781.61
2023-10-09T11:44:21.310Z,99775.62
2023-10-09T11:45:33.320Z,99778.58
2023-10-09T11:46:51.627Z,99777.85
2023-10-09T11:47:59.037Z,99772.35
2023-10-09T11:49:19.416Z,99766.67
2023-10-09T11:50:23.837Z,99774.84
2023-10-09T11:51:26.254Z,99779.06
2023-10-09T11:52:42.145Z,99800.48
2023-10-09T11:53:53.631Z,99779.39
2023-10-09T11:54:57.745Z,99775.56
2023-10-09T11:56:00.868Z,99777.12
2023-10-09T11:57:04.098Z,99768.44
2023-10-09T11:58:07.580Z,99780.37
2023-10-09T11:59:11.897Z,99775.09
2023-10-09T12:00:18.054Z,99768.75
2023-10-09T12:01:24.966Z,99774.25
2023-10-09T12:02:28.464Z,99788.78
2023-10-09T12:03:32.363Z,99779.84
2023-10-09T12:04:35.024Z,99779.99
2023-10-09T12:05:38.154Z,99793.08
2023-10-09T12:06:43.453Z,99775.94
2023-10-09T12:07:55.815Z,99812.16
2023-10-09T12:08:59.448Z,99792.11
2023-10-09T12:10:03.363Z,99793.91
2023-10-09T12:11:07.682Z,99805.57
2023-10-09T12:12:10.157Z,99804.64
2023-10-09T12:13:12.815Z,99812.42
2023-10-09T12:14:15.173Z,99785.47
2023-10-09T12:15:18.456Z,99791.55
2023-10-09T12:16:22.633Z,99791.27
2023-10-09T12:17:27.789Z,99792.28
2023-10-09T12:18:31.409Z,99782.69
2023-10-09T12:19:40.414Z,99785.40
2023-10-09T12:20:45.791Z,99781.70
2023-10-09T12:21:48.269Z,99794.90
2023-10-09T12:22:50.914Z,99775.68
2023-10-09T12:23:55.193Z,99786.77
2023-10-09T12:24:59.794Z,99787.30
2023-10-09T12:26:04.949Z,99807.55
2023-10-09T12:27:09.263Z,99795.30
2023-10-09T12:28:14.923Z,99778.92
2023-10-09T12:29:19.210Z,99775.83
2023-10-09T12:30:23.578Z,99794.84
2023-10-09T12:31:25.926Z,99794.21
2023-10-09T12:32:29.423Z,99775.49
2023-10-09T12:33:32.267Z,99785.40
2023-10-09T12:34:36.926Z,99787.88
2023-10-09T12:35:41.108Z,99776.05
2023-10-09T12:36:50.358Z,99770.94
2023-10-09T12:37:55.423Z,99774.63
2023-10-09T12:39:02.611Z,99767.63
2023-10-09T12:40:07.369Z,99793.42
2023-10-09T12:41:11.715Z,99803.26
2023-10-09T12:42:14.181Z,99797.61
2023-10-09T12:43:18.211Z,99795.37
2023-10-09T12:44:20.581Z,99797.41
2023-10-09T12:45:24.732Z,99770.00
2023-10-09T12:46:28.257Z,99780.63
2023-10-09T12:47:33.524Z,99783.42
2023-10-09T12:48:38.220Z,99792.18
2023-10-09T12:49:42.309Z,99795.84
2023-10-09T12:50:45.912Z,99781.07
2023-10-09T12:51:48.001Z,99785.13
2023-10-09T12:52:52.177Z,99774.95
2023-10-09T12:53:56.457Z,99783.53
2023-10-09T12:54:59.131Z,99778.09
2023-10-09T12:56:02.106Z,99786.67
2023-10-09T12:57:05.361Z,99781.65
2023-10-09T12:58:09.498Z,99771.30
2023-10-09T12:59:15.225Z,99782.14
2023-10-09T13:00:20.133Z,99787.02
2023-10-09T13:01:22.965Z,99784.73
2023-10-09T13:02:32.591Z,99835.34
2023-10-09T13:03:37.316Z,99773.37
2023-10-09T13:04:42.001Z,99805.24
2023-10-09T13:05:53.788Z,99767.58
2023-10-09T13:06:58.187Z,99780.63
2023-10-09T13:08:02.411Z,99772.31
2023-10-09T13:09:06.853Z,99787.09
2023-10-09T13:10:11.237Z,99777.02
2023-10-09T13:11:16.573Z,99781.13
2023-10-09T13:12:18.915Z,99779.93
2023-10-09T13:13:21.778Z,99770.69
2023-10-09T13:14:26.188Z,99793.91
2023-10-09T13:15:29.211Z,99763.56
2023-10-09T13:16:33.700Z,99777.56
2023-10-09T13:17:36.952Z,99768.05
2023-10-09T13:18:42.374Z,99784.71
2023-10-09T13:19:46.754Z,99788.58
2023-10-09T13:20:48.965Z,99790.30
2023-10-09T13:21:53.027Z,99780.59
2023-10-09T13:22:57.600Z,99785.64
2023-10-09T13:24:01.790Z,99783.05
2023-10-09T13:25:05.300Z,99780.41
2023-10-09T13:26:32.459Z,99782.03